sensor_id;sensor_type;location;lat;lon;timestamp;pressure;altitude;pressure_sealevel;temperature;humidity
19096;BME280;9680;52.520;13.332;2023-04-08T00:01:02;101833.75;;;5.89;93.74
19096;BME280;9680;52.520;13.332;2023-04-08T00:03:28;101824.28;;;5.88;93.78
19096;BME280;9680;52.520;13.332;2023-04-08T00:05:55;101821.69;;;5.93;94.04
19096;BME280;9680;52.520;13.332;2023-04-08T00:08:22;101820.81;;;5.92;93.75
19096;BME280;9680;52.520;13.332;2023-04-08T00:10:49;101823.44;;;5.98;93.71
19096;BME280;9680;52.520;13.332;2023-04-08T00:13:16;101826.88;;;5.99;93.78
19096;BME280;9680;52.520;13.332;2023-04-08T00:15:42;101826.91;;;6.04;93.64
19096;BME280;9680;52.520;13.332;2023-04-08T00:18:12;101826.03;;;6.02;93.35
19096;BME280;9680;52.520;13.332;2023-04-08T00:20:39;101831.19;;;6.06;93.36
19096;BME280;9680;52.520;13.332;2023-04-08T00:23:06;101831.19;;;6.00;93.10
19096;BME280;9680;52.520;13.332;2023-04-08T00:25:33;101831.19;;;5.97;93.12
19096;BME280;9680;52.520;13.332;2023-04-08T00:28:00;101829.47;;;5.97;93.51
19096;BME280;9680;52.520;13.332;2023-04-08T00:30:27;101826.00;;;5.89;93.28
19096;BME280;9680;52.520;13.332;2023-04-08T00:32:54;101825.16;;;5.87;93.59
19096;BME280;9680;52.520;13.332;2023-04-08T00:35:22;101820.84;;;5.83;93.70
19096;BME280;9680;52.520;13.332;2023-04-08T00:37:49;101822.56;;;5.81;94.35
19096;BME280;9680;52.520;13.332;2023-04-08T00:40:16;101824.31;;;5.83;94.56
19096;BME280;9680;52.520;13.332;2023-04-08T00:42:43;101830.34;;;5.89;94.09
19096;BME280;9680;52.520;13.332;2023-04-08T00:45:10;101834.63;;;5.87;94.37
19096;BME280;9680;52.520;13.332;2023-04-08T00:47:37;101833.78;;;5.91;94.61
19096;BME280;9680;52.520;13.332;2023-04-08T00:50:07;101826.84;;;5.94;94.15
19096;BME280;9680;52.520;13.332;2023-04-08T00:52:36;101836.34;;;5.94;93.82
19096;BME280;9680;52.520;13.332;2023-04-08T00:55:04;101825.16;;;5.96;94.12
19096;BME280;9680;52.520;13.332;2023-04-08T00:57:31;101824.28;;;5.97;93.83
19096;BME280;9680;52.520;13.332;2023-04-08T00:59:58;101826.00;;;5.97;93.84
19096;BME280;9680;52.520;13.332;2023-04-08T01:02:29;101823.47;;;6.02;93.99
19096;BME280;9680;52.520;13.332;2023-04-08T01:05:01;101815.69;;;6.02;94.01
19096;BME280;9680;52.520;13.332;2023-04-08T01:07:31;101823.44;;;6.03;93.94
19096;BME280;9680;52.520;13.332;2023-04-08T01:10:04;101819.13;;;5.97;93.63
19096;BME280;9680;52.520;13.332;2023-04-08T01:12:36;101823.41;;;6.00;93.70
19096;BME280;9680;52.520;13.332;2023-04-08T01:15:07;101825.16;;;6.01;93.64
19096;BME280;9680;52.520;13.332;2023-04-08T01:17:37;101834.63;;;5.99;93.61
19096;BME280;9680;52.520;13.332;2023-04-08T01:20:07;101833.81;;;6.02;93.39
19096;BME280;9680;52.520;13.332;2023-04-08T01:22:43;101827.75;;;6.06;93.75
19096;BME280;9680;52.520;13.332;2023-04-08T01:25:17;101832.06;;;6.05;93.26
19096;BME280;9680;52.520;13.332;2023-04-08T01:27:48;101842.41;;;6.05;93.00
19096;BME280;9680;52.520;13.332;2023-04-08T01:30:16;101838.09;;;6.01;93.31
19096;BME280;9680;52.520;13.332;2023-04-08T01:32:45;101847.59;;;6.04;93.28
19096;BME280;9680;52.520;13.332;2023-04-08T01:35:14;101838.94;;;5.95;93.05
19096;BME280;9680;52.520;13.332;2023-04-08T01:37:42;101842.41;;;5.90;93.39
19096;BME280;9680;52.520;13.332;2023-04-08T01:40:10;101848.41;;;5.84;94.06
19096;BME280;9680;52.520;13.332;2023-04-08T01:42:38;101844.13;;;5.83;94.07
19096;BME280;9680;52.520;13.332;2023-04-08T01:45:08;101845.84;;;5.82;94.50
19096;BME280;9680;52.520;13.332;2023-04-08T01:47:37;101848.41;;;5.84;94.20
19096;BME280;9680;52.520;13.332;2023-04-08T01:50:05;101849.28;;;5.83;94.40
19096;BME280;9680;52.520;13.332;2023-04-08T01:52:34;101846.69;;;5.86;94.97
19096;BME280;9680;52.520;13.332;2023-04-08T01:55:03;101852.72;;;5.85;94.54
19096;BME280;9680;52.520;13.332;2023-04-08T01:57:33;101863.09;;;5.83;94.51
19096;BME280;9680;52.520;13.332;2023-04-08T02:00:05;101855.34;;;5.83;94.90
19096;BME280;9680;52.520;13.332;2023-04-08T02:02:46;101846.72;;;5.91;94.82
19096;BME280;9680;52.520;13.332;2023-04-08T02:05:14;101851.00;;;5.92;94.54
19096;BME280;9680;52.520;13.332;2023-04-08T02:07:41;101846.69;;;5.92;94.28
19096;BME280;9680;52.520;13.332;2023-04-08T02:10:10;101840.69;;;5.89;94.05
19096;BME280;9680;52.520;13.332;2023-04-08T02:12:37;101836.34;;;5.89;94.43
19096;BME280;9680;52.520;13.332;2023-04-08T02:15:09;101844.09;;;5.89;94.46
19096;BME280;9680;52.520;13.332;2023-04-08T02:17:42;101851.00;;;5.93;94.26
19096;BME280;9680;52.520;13.332;2023-04-08T02:20:16;101856.19;;;5.92;94.09
19096;BME280;9680;52.520;13.332;2023-04-08T02:22:47;101859.63;;;5.89;94.21
19096;BME280;9680;52.520;13.332;2023-04-08T02:25:16;101863.06;;;5.91;94.35
19096;BME280;9680;52.520;13.332;2023-04-08T02:27:44;101867.38;;;5.89;94.50
19096;BME280;9680;52.520;13.332;2023-04-08T02:30:14;101874.28;;;5.95;94.56
19096;BME280;9680;52.520;13.332;2023-04-08T02:32:43;101871.69;;;5.93;94.38
19096;BME280;9680;52.520;13.332;2023-04-08T02:35:13;101871.72;;;6.00;94.75
19096;BME280;9680;52.520;13.332;2023-04-08T02:37:40;101871.72;;;6.01;94.11
19096;BME280;9680;52.520;13.332;2023-04-08T02:40:22;101865.66;;;5.93;94.08
19096;BME280;9680;52.520;13.332;2023-04-08T02:42:49;101876.88;;;5.87;94.47
19096;BME280;9680;52.520;13.332;2023-04-08T02:45:16;101872.56;;;5.88;94.77
19096;BME280;9680;52.520;13.332;2023-04-08T02:47:43;101877.75;;;5.91;94.74
19096;BME280;9680;52.520;13.332;2023-04-08T02:50:10;101876.88;;;5.93;94.71
19096;BME280;9680;52.520;13.332;2023-04-08T02:52:38;101869.97;;;5.91;94.77
19096;BME280;9680;52.520;13.332;2023-04-08T02:55:06;101876.03;;;5.93;94.90
19096;BME280;9680;52.520;13.332;2023-04-08T02:57:34;101882.06;;;5.96;95.01
19096;BME280;9680;52.520;13.332;2023-04-08T03:00:02;101878.66;;;6.01;94.68
19096;BME280;9680;52.520;13.332;2023-04-08T03:02:29;101882.94;;;6.03;94.78
19096;BME280;9680;52.520;13.332;2023-04-08T03:04:56;101882.97;;;6.02;94.63
19096;BME280;9680;52.520;13.332;2023-04-08T03:07:23;101886.41;;;6.07;94.70
19096;BME280;9680;52.520;13.332;2023-04-08T03:09:52;101893.31;;;6.02;94.42
19096;BME280;9680;52.520;13.332;2023-04-08T03:12:19;101882.91;;;5.95;94.72
19096;BME280;9680;52.520;13.332;2023-04-08T03:14:46;101895.84;;;5.98;94.71
19096;BME280;9680;52.520;13.332;2023-04-08T03:17:13;101899.28;;;5.93;94.59
19096;BME280;9680;52.520;13.332;2023-04-08T03:19:40;101894.09;;;5.94;94.93
19096;BME280;9680;52.520;13.332;2023-04-08T03:22:07;101901.03;;;5.94;94.98
19096;BME280;9680;52.520;13.332;2023-04-08T03:24:35;101900.16;;;5.87;95.17
19096;BME280;9680;52.520;13.332;2023-04-08T03:27:03;101901.88;;;5.90;95.37
19096;BME280;9680;52.520;13.332;2023-04-08T03:29:30;101909.63;;;5.88;95.57
19096;BME280;9680;52.520;13.332;2023-04-08T03:31:57;101906.19;;;5.83;95.63
19096;BME280;9680;52.520;13.332;2023-04-08T03:34:24;101902.75;;;5.76;96.09
19096;BME280;9680;52.520;13.332;2023-04-08T03:36:53;101907.06;;;5.74;96.31
19096;BME280;9680;52.520;13.332;2023-04-08T03:39:20;101902.75;;;5.76;96.79
19096;BME280;9680;52.520;13.332;2023-04-08T03:41:47;101915.69;;;5.76;96.99
19096;BME280;9680;52.520;13.332;2023-04-08T03:44:15;101900.16;;;5.73;97.16
19096;BME280;9680;52.520;13.332;2023-04-08T03:46:42;101910.50;;;5.73;97.50
19096;BME280;9680;52.520;13.332;2023-04-08T03:49:09;101914.78;;;5.69;97.76
19096;BME280;9680;52.520;13.332;2023-04-08T03:51:35;101909.63;;;5.76;97.81
19096;BME280;9680;52.520;13.332;2023-04-08T03:54:02;101919.09;;;5.80;97.53
19096;BME280;9680;52.520;13.332;2023-04-08T03:56:30;101920.84;;;5.79;97.46
19096;BME280;9680;52.520;13.332;2023-04-08T03:58:57;101909.63;;;5.82;97.76
19096;BME280;9680;52.520;13.332;2023-04-08T04:01:25;101913.94;;;5.88;97.79
19096;BME280;9680;52.520;13.332;2023-04-08T04:03:53;101919.13;;;5.94;97.14
19096;BME280;9680;52.520;13.332;2023-04-08T04:06:20;101926.00;;;5.90;97.07
19096;BME280;9680;52.520;13.332;2023-04-08T04:08:47;101925.16;;;5.93;97.18
19096;BME280;9680;52.520;13.332;2023-04-08T04:11:14;101927.75;;;5.93;96.92
19096;BME280;9680;52.520;13.332;2023-04-08T04:13:41;101934.66;;;5.94;96.73
19096;BME280;9680;52.520;13.332;2023-04-08T04:16:08;101943.28;;;5.93;96.73
19096;BME280;9680;52.520;13.332;2023-04-08T04:18:36;101938.09;;;5.96;97.11
19096;BME280;9680;52.520;13.332;2023-04-08T04:21:04;101938.09;;;5.96;96.86
19096;BME280;9680;52.520;13.332;2023-04-08T04:23:32;101940.69;;;5.93;96.74
19096;BME280;9680;52.520;13.332;2023-04-08T04:25:59;101938.94;;;5.93;97.05
19096;BME280;9680;52.520;13.332;2023-04-08T04:28:26;101941.56;;;6.01;97.16
19096;BME280;9680;52.520;13.332;2023-04-08T04:30:53;101947.63;;;6.06;96.77
19096;BME280;9680;52.520;13.332;2023-04-08T04:33:19;101945.03;;;6.06;96.49
19096;BME280;9680;52.520;13.332;2023-04-08T04:35:48;101950.19;;;6.09;96.53
19096;BME280;9680;52.520;13.332;2023-04-08T04:38:15;101945.03;;;6.09;96.28
19096;BME280;9680;52.520;13.332;2023-04-08T04:40:41;101950.19;;;6.06;95.95
19096;BME280;9680;52.520;13.332;2023-04-08T04:43:09;101955.38;;;6.03;96.13
19096;BME280;9680;52.520;13.332;2023-04-08T04:45:36;101958.81;;;6.02;95.97
19096;BME280;9680;52.520;13.332;2023-04-08T04:48:03;101961.41;;;6.08;96.14
19096;BME280;9680;52.520;13.332;2023-04-08T04:50:30;101962.28;;;6.04;95.88
19096;BME280;9680;52.520;13.332;2023-04-08T04:52:58;101970.84;;;6.00;96.08
19096;BME280;9680;52.520;13.332;2023-04-08T04:55:25;101976.09;;;6.08;96.44
19096;BME280;9680;52.520;13.332;2023-04-08T04:57:52;101975.22;;;6.17;96.49
19096;BME280;9680;52.520;13.332;2023-04-08T05:00:19;101970.91;;;6.20;95.64
19096;BME280;9680;52.520;13.332;2023-04-08T05:02:46;101969.19;;;6.19;95.31
19096;BME280;9680;52.520;13.332;2023-04-08T05:05:13;101978.66;;;6.16;95.10
19096;BME280;9680;52.520;13.332;2023-04-08T05:07:39;101977.78;;;6.20;95.31
19096;BME280;9680;52.520;13.332;2023-04-08T05:10:09;101978.66;;;6.30;95.45
19096;BME280;9680;52.520;13.332;2023-04-08T05:12:35;101978.69;;;6.34;94.49
19096;BME280;9680;52.520;13.332;2023-04-08T05:15:03;101983.84;;;6.30;94.50
19096;BME280;9680;52.520;13.332;2023-04-08T05:17:30;101987.31;;;6.30;94.11
19096;BME280;9680;52.520;13.332;2023-04-08T05:19:57;101993.34;;;6.32;94.38
19096;BME280;9680;52.520;13.332;2023-04-08T05:22:25;101987.31;;;6.33;94.11
19096;BME280;9680;52.520;13.332;2023-04-08T05:24:51;102009.72;;;6.33;93.99
19096;BME280;9680;52.520;13.332;2023-04-08T05:27:20;102000.22;;;6.27;93.95
19096;BME280;9680;52.520;13.332;2023-04-08T05:29:47;102001.97;;;6.30;94.20
19096;BME280;9680;52.520;13.332;2023-04-08T05:32:14;101997.66;;;6.39;94.46
19096;BME280;9680;52.520;13.332;2023-04-08T05:34:41;102000.25;;;6.46;94.22
19096;BME280;9680;52.520;13.332;2023-04-08T05:37:08;102003.69;;;6.48;93.58
19096;BME280;9680;52.520;13.332;2023-04-08T05:39:37;102001.97;;;6.50;93.25
19096;BME280;9680;52.520;13.332;2023-04-08T05:42:04;102010.59;;;6.55;93.40
19096;BME280;9680;52.520;13.332;2023-04-08T05:44:32;102017.47;;;6.54;92.79
19096;BME280;9680;52.520;13.332;2023-04-08T05:47:00;102020.94;;;6.52;92.93
19096;BME280;9680;52.520;13.332;2023-04-08T05:49:27;102026.13;;;6.55;92.49
19096;BME280;9680;52.520;13.332;2023-04-08T05:51:54;102033.00;;;6.48;92.36
19096;BME280;9680;52.520;13.332;2023-04-08T05:54:20;102039.91;;;6.46;92.70
19096;BME280;9680;52.520;13.332;2023-04-08T05:56:47;102045.13;;;6.48;92.63
19096;BME280;9680;52.520;13.332;2023-04-08T05:59:14;102043.38;;;6.48;92.88
19096;BME280;9680;52.520;13.332;2023-04-08T06:01:42;102040.78;;;6.56;92.81
19096;BME280;9680;52.520;13.332;2023-04-08T06:04:09;102033.00;;;6.61;92.41
19096;BME280;9680;52.520;13.332;2023-04-08T06:06:36;102034.75;;;6.60;92.17
19096;BME280;9680;52.520;13.332;2023-04-08T06:09:03;102031.28;;;6.61;92.16
19096;BME280;9680;52.520;13.332;2023-04-08T06:11:30;102040.78;;;6.61;91.78
19096;BME280;9680;52.520;13.332;2023-04-08T06:13:57;102039.03;;;6.60;92.25
19096;BME280;9680;52.520;13.332;2023-04-08T06:16:24;102039.91;;;6.66;92.16
19096;BME280;9680;52.520;13.332;2023-04-08T06:18:52;102041.66;;;6.67;91.86
19096;BME280;9680;52.520;13.332;2023-04-08T06:21:19;102046.81;;;6.70;91.73
19096;BME280;9680;52.520;13.332;2023-04-08T06:23:46;102052.88;;;6.73;92.03
19096;BME280;9680;52.520;13.332;2023-04-08T06:26:13;102045.06;;;6.82;91.97
19096;BME280;9680;52.520;13.332;2023-04-08T06:28:40;102045.06;;;6.88;91.55
19096;BME280;9680;52.520;13.332;2023-04-08T06:31:08;102048.50;;;7.07;91.44
19096;BME280;9680;52.520;13.332;2023-04-08T06:33:35;102051.91;;;7.23;90.92
19096;BME280;9680;52.520;13.332;2023-04-08T06:36:04;102051.84;;;7.39;90.03
19096;BME280;9680;52.520;13.332;2023-04-08T06:38:31;102056.97;;;7.51;89.75
19096;BME280;9680;52.520;13.332;2023-04-08T06:41:01;102051.75;;;7.61;88.86
19096;BME280;9680;52.520;13.332;2023-04-08T06:43:28;102062.13;;;7.65;88.34
19096;BME280;9680;52.520;13.332;2023-04-08T06:45:55;102069.88;;;7.68;87.57
19096;BME280;9680;52.520;13.332;2023-04-08T06:48:22;102079.41;;;7.69;87.61
19096;BME280;9680;52.520;13.332;2023-04-08T06:50:53;102081.03;;;7.87;87.95
19096;BME280;9680;52.520;13.332;2023-04-08T06:53:22;102086.19;;;7.97;87.46
19096;BME280;9680;52.520;13.332;2023-04-08T06:55:50;102086.16;;;8.00;86.75
19096;BME280;9680;52.520;13.332;2023-04-08T06:58:17;102087.88;;;8.06;86.40
19096;BME280;9680;52.520;13.332;2023-04-08T07:00:43;102094.78;;;8.07;86.08
19096;BME280;9680;52.520;13.332;2023-04-08T07:03:10;102095.59;;;8.15;85.94
19096;BME280;9680;52.520;13.332;2023-04-08T07:05:37;102097.25;;;8.25;85.86
19096;BME280;9680;52.520;13.332;2023-04-08T07:08:07;102095.47;;;8.34;85.56
19096;BME280;9680;52.520;13.332;2023-04-08T07:10:35;102094.56;;;8.42;84.95
19096;BME280;9680;52.520;13.332;2023-04-08T07:13:02;102098.88;;;8.50;84.47
19096;BME280;9680;52.520;13.332;2023-04-08T07:15:29;102093.59;;;8.57;84.16
19096;BME280;9680;52.520;13.332;2023-04-08T07:18:01;102096.03;;;8.78;83.66
19096;BME280;9680;52.520;13.332;2023-04-08T07:20:32;102095.13;;;8.82;82.94
19096;BME280;9680;52.520;13.332;2023-04-08T07:23:03;102095.94;;;8.87;82.27
19096;BME280;9680;52.520;13.332;2023-04-08T07:25:31;102101.88;;;9.05;82.47
19096;BME280;9680;52.520;13.332;2023-04-08T07:28:03;102100.19;;;8.99;80.93
19096;BME280;9680;52.520;13.332;2023-04-08T07:30:30;102106.22;;;9.01;80.75
19096;BME280;9680;52.520;13.332;2023-04-08T07:32:57;102112.28;;;9.05;80.83
19096;BME280;9680;52.520;13.332;2023-04-08T07:35:24;102112.94;;;9.22;80.83
19096;BME280;9680;52.520;13.332;2023-04-08T07:37:59;102111.97;;;9.32;79.23
19096;BME280;9680;52.520;13.332;2023-04-08T07:40:26;102112.16;;;9.14;78.51
19096;BME280;9680;52.520;13.332;2023-04-08T07:42:56;102119.19;;;9.06;79.25
19096;BME280;9680;52.520;13.332;2023-04-08T07:45:24;102119.28;;;8.96;79.49
19096;BME280;9680;52.520;13.332;2023-04-08T07:47:51;102119.97;;;9.14;80.14
19096;BME280;9680;52.520;13.332;2023-04-08T07:50:18;102134.59;;;9.24;79.19
19096;BME280;9680;52.520;13.332;2023-04-08T07:52:45;102128.47;;;9.31;78.92
19096;BME280;9680;52.520;13.332;2023-04-08T07:55:13;102128.53;;;9.24;78.59
19096;BME280;9680;52.520;13.332;2023-04-08T07:57:40;102129.38;;;9.26;79.35
19096;BME280;9680;52.520;13.332;2023-04-08T08:00:07;102132.81;;;9.29;78.73
19096;BME280;9680;52.520;13.332;2023-04-08T08:02:41;102133.72;;;9.25;78.79
19096;BME280;9680;52.520;13.332;2023-04-08T08:05:09;102132.19;;;9.06;78.79
19096;BME280;9680;52.520;13.332;2023-04-08T08:07:35;102141.91;;;8.82;79.60
19096;BME280;9680;52.520;13.332;2023-04-08T08:10:02;102131.31;;;9.05;80.73
19096;BME280;9680;52.520;13.332;2023-04-08T08:12:29;102136.25;;;9.33;79.31
19096;BME280;9680;52.520;13.332;2023-04-08T08:14:56;102137.19;;;9.24;78.58
19096;BME280;9680;52.520;13.332;2023-04-08T08:17:24;102136.31;;;9.25;78.72
19096;BME280;9680;52.520;13.332;2023-04-08T08:19:54;102139.63;;;9.40;78.60
19096;BME280;9680;52.520;13.332;2023-04-08T08:22:21;102139.44;;;9.58;78.30
19096;BME280;9680;52.520;13.332;2023-04-08T08:24:48;102137.56;;;9.71;77.98
19096;BME280;9680;52.520;13.332;2023-04-08T08:27:16;102140.16;;;9.71;76.27
19096;BME280;9680;52.520;13.332;2023-04-08T08:29:42;102146.31;;;9.66;76.83
19096;BME280;9680;52.520;13.332;2023-04-08T08:32:09;102152.13;;;9.85;76.89
19096;BME280;9680;52.520;13.332;2023-04-08T08:34:36;102150.44;;;9.82;76.24
19096;BME280;9680;52.520;13.332;2023-04-08T08:37:04;102143.44;;;9.86;76.13
19096;BME280;9680;52.520;13.332;2023-04-08T08:39:31;102158.22;;;9.85;76.08
19096;BME280;9680;52.520;13.332;2023-04-08T08:41:58;102152.47;;;10.27;76.77
19096;BME280;9680;52.520;13.332;2023-04-08T08:44:25;102157.13;;;10.66;75.91
19096;BME280;9680;52.520;13.332;2023-04-08T08:46:52;102161.50;;;10.66;72.75
19096;BME280;9680;52.520;13.332;2023-04-08T08:49:19;102167.34;;;10.80;73.54
19096;BME280;9680;52.520;13.332;2023-04-08T08:51:46;102161.16;;;10.87;72.05
19096;BME280;9680;52.520;13.332;2023-04-08T08:54:14;102157.53;;;10.95;72.66
19096;BME280;9680;52.520;13.332;2023-04-08T08:56:41;102157.03;;;11.24;72.07
19096;BME280;9680;52.520;13.332;2023-04-08T08:59:09;102166.13;;;11.50;71.10
19096;BME280;9680;52.520;13.332;2023-04-08T09:01:37;102164.69;;;11.33;69.32
19096;BME280;9680;52.520;13.332;2023-04-08T09:04:10;102164.56;;;11.41;69.96
19096;BME280;9680;52.520;13.332;2023-04-08T09:06:38;102169.84;;;11.38;68.99
19096;BME280;9680;52.520;13.332;2023-04-08T09:09:05;102172.16;;;11.52;69.74
19096;BME280;9680;52.520;13.332;2023-04-08T09:11:36;102168.22;;;11.76;69.03
19096;BME280;9680;52.520;13.332;2023-04-08T09:14:04;102174.31;;;11.77;68.80
19096;BME280;9680;52.520;13.332;2023-04-08T09:16:32;102174.25;;;11.78;68.34
19096;BME280;9680;52.520;13.332;2023-04-08T09:19:09;102180.81;;;11.56;68.02
19096;BME280;9680;52.520;13.332;2023-04-08T09:21:36;102191.38;;;11.49;67.08
19096;BME280;9680;52.520;13.332;2023-04-08T09:24:05;102198.00;;;11.17;68.48
19096;BME280;9680;52.520;13.332;2023-04-08T09:26:32;102195.53;;;11.10;69.32
19096;BME280;9680;52.520;13.332;2023-04-08T09:29:02;102201.22;;;11.33;70.10
19096;BME280;9680;52.520;13.332;2023-04-08T09:31:31;102194.56;;;11.64;69.30
19096;BME280;9680;52.520;13.332;2023-04-08T09:33:59;102200.81;;;12.02;68.76
19096;BME280;9680;52.520;13.332;2023-04-08T09:36:27;102194.63;;;12.06;67.88
19096;BME280;9680;52.520;13.332;2023-04-08T09:38:55;102194.91;;;11.91;67.20
19096;BME280;9680;52.520;13.332;2023-04-08T09:41:22;102200.53;;;11.71;66.86
19096;BME280;9680;52.520;13.332;2023-04-08T09:43:50;102209.81;;;11.39;67.76
19096;BME280;9680;52.520;13.332;2023-04-08T09:46:25;102206.47;;;11.32;68.81
19096;BME280;9680;52.520;13.332;2023-04-08T09:48:59;102211.31;;;11.03;68.89
19096;BME280;9680;52.520;13.332;2023-04-08T09:51:31;102208.84;;;10.94;70.09
19096;BME280;9680;52.520;13.332;2023-04-08T09:54:02;102206.31;;;10.88;70.10
19096;BME280;9680;52.520;13.332;2023-04-08T09:56:35;102207.38;;;10.74;70.38
19096;BME280;9680;52.520;13.332;2023-04-08T09:59:09;102213.28;;;10.86;70.77
19096;BME280;9680;52.520;13.332;2023-04-08T10:01:44;102213.28;;;10.86;70.52
19096;BME280;9680;52.520;13.332;2023-04-08T10:04:14;102212.13;;;11.05;70.58
19096;BME280;9680;52.520;13.332;2023-04-08T10:06:42;102209.16;;;11.26;69.98
19096;BME280;9680;52.520;13.332;2023-04-08T10:09:09;102216.03;;;11.33;68.74
19096;BME280;9680;52.520;13.332;2023-04-08T10:11:36;102211.03;;;11.19;68.92
19096;BME280;9680;52.520;13.332;2023-04-08T10:14:04;102216.41;;;11.10;68.89
19096;BME280;9680;52.520;13.332;2023-04-08T10:16:31;102212.19;;;11.01;69.58
19096;BME280;9680;52.520;13.332;2023-04-08T10:19:00;102227.78;;;11.05;69.19
19096;BME280;9680;52.520;13.332;2023-04-08T10:21:31;102217.72;;;10.82;68.98
19096;BME280;9680;52.520;13.332;2023-04-08T10:23:58;102214.97;;;10.90;69.70
19096;BME280;9680;52.520;13.332;2023-04-08T10:26:35;102214.59;;;11.15;69.15
19096;BME280;9680;52.520;13.332;2023-04-08T10:32:03;102215.41;;;12.11;66.89
19096;BME280;9680;52.520;13.332;2023-04-08T10:34:31;102211.28;;;12.42;64.40
19096;BME280;9680;52.520;13.332;2023-04-08T10:37:00;102209.63;;;12.37;63.48
19096;BME280;9680;52.520;13.332;2023-04-08T10:39:32;102217.00;;;12.20;63.05
19096;BME280;9680;52.520;13.332;2023-04-08T10:42:00;102207.38;;;11.78;63.66
19096;BME280;9680;52.520;13.332;2023-04-08T10:44:28;102204.28;;;12.03;64.71
19096;BME280;9680;52.520;13.332;2023-04-08T10:46:55;102207.03;;;12.37;64.13
19096;BME280;9680;52.520;13.332;2023-04-08T10:49:34;102201.19;;;12.65;63.75
19096;BME280;9680;52.520;13.332;2023-04-08T10:52:06;102200.59;;;12.90;62.83
19096;BME280;9680;52.520;13.332;2023-04-08T10:54:33;102205.22;;;12.79;59.75
19096;BME280;9680;52.520;13.332;2023-04-08T10:57:00;102200.38;;;12.63;61.18
19096;BME280;9680;52.520;13.332;2023-04-08T10:59:30;102210.47;;;12.79;61.02
19096;BME280;9680;52.520;13.332;2023-04-08T11:01:57;102212.13;;;12.81;60.04
19096;BME280;9680;52.520;13.332;2023-04-08T11:04:25;102208.50;;;12.87;60.68
19096;BME280;9680;52.520;13.332;2023-04-08T11:06:53;102206.28;;;12.72;60.70
19096;BME280;9680;52.520;13.332;2023-04-08T11:09:20;102207.03;;;12.75;60.79
19096;BME280;9680;52.520;13.332;2023-04-08T11:11:47;102206.50;;;12.62;60.34
19096;BME280;9680;52.520;13.332;2023-04-08T11:14:17;102207.13;;;12.72;61.38
19096;BME280;9680;52.520;13.332;2023-04-08T11:16:46;102202.91;;;13.03;60.92
19096;BME280;9680;52.520;13.332;2023-04-08T11:19:13;102209.75;;;13.08;59.39
19096;BME280;9680;52.520;13.332;2023-04-08T11:21:39;102211.88;;;13.27;59.24
19096;BME280;9680;52.520;13.332;2023-04-08T11:24:10;102201.75;;;13.49;58.49
19096;BME280;9680;52.520;13.332;2023-04-08T11:26:38;102203.06;;;13.31;56.34
19096;BME280;9680;52.520;13.332;2023-04-08T11:29:09;102199.53;;;13.67;57.33
19096;BME280;9680;52.520;13.332;2023-04-08T11:31:39;102208.63;;;13.85;56.17
19096;BME280;9680;52.520;13.332;2023-04-08T11:34:07;102207.56;;;13.91;56.20
19096;BME280;9680;52.520;13.332;2023-04-08T11:36:34;102208.63;;;13.85;54.47
19096;BME280;9680;52.520;13.332;2023-04-08T11:39:06;102202.31;;;13.61;55.17
19096;BME280;9680;52.520;13.332;2023-04-08T11:41:37;102218.47;;;13.44;56.06
19096;BME280;9680;52.520;13.332;2023-04-08T11:44:05;102210.41;;;13.17;57.10
19096;BME280;9680;52.520;13.332;2023-04-08T11:46:33;102215.22;;;13.34;57.68
19096;BME280;9680;52.520;13.332;2023-04-08T11:49:02;102209.97;;;13.68;56.36
19096;BME280;9680;52.520;13.332;2023-04-08T11:51:30;102204.09;;;13.90;55.36
19096;BME280;9680;52.520;13.332;2023-04-08T11:53:58;102200.94;;;14.39;53.19
19096;BME280;9680;52.520;13.332;2023-04-08T11:56:27;102200.47;;;14.54;52.78
19096;BME280;9680;52.520;13.332;2023-04-08T11:58:56;102205.09;;;14.16;52.98
19096;BME280;9680;52.520;13.332;2023-04-08T12:01:23;102200.91;;;14.10;53.60
19096;BME280;9680;52.520;13.332;2023-04-08T12:03:54;102200.41;;;13.66;54.06
19096;BME280;9680;52.520;13.332;2023-04-08T12:06:21;102215.25;;;13.32;55.05
19096;BME280;9680;52.520;13.332;2023-04-08T12:08:48;102205.03;;;13.21;56.06
19096;BME280;9680;52.520;13.332;2023-04-08T12:11:15;102203.19;;;13.27;56.03
19096;BME280;9680;52.520;13.332;2023-04-08T12:13:41;102207.78;;;13.17;55.23
19096;BME280;9680;52.520;13.332;2023-04-08T12:16:10;102206.00;;;13.19;56.34
19096;BME280;9680;52.520;13.332;2023-04-08T12:18:44;102202.06;;;13.35;56.61
19096;BME280;9680;52.520;13.332;2023-04-08T12:21:11;102201.03;;;13.76;56.62
19096;BME280;9680;52.520;13.332;2023-04-08T12:23:38;102202.47;;;13.86;55.29
19096;BME280;9680;52.520;13.332;2023-04-08T12:26:05;102208.88;;;13.44;54.90
19096;BME280;9680;52.520;13.332;2023-04-08T12:28:34;102204.53;;;13.07;56.17
19096;BME280;9680;52.520;13.332;2023-04-08T12:31:01;102203.69;;;13.06;56.74
19096;BME280;9680;52.520;13.332;2023-04-08T12:33:34;102211.50;;;13.43;56.21
19096;BME280;9680;52.520;13.332;2023-04-08T12:36:00;102198.00;;;13.58;55.32
19096;BME280;9680;52.520;13.332;2023-04-08T12:38:29;102199.56;;;13.65;54.84
19096;BME280;9680;52.520;13.332;2023-04-08T12:40:58;102208.66;;;13.83;54.56
19096;BME280;9680;52.520;13.332;2023-04-08T12:43:24;102199.81;;;14.18;53.42
19096;BME280;9680;52.520;13.332;2023-04-08T12:45:51;102194.59;;;14.46;52.21
19096;BME280;9680;52.520;13.332;2023-04-08T12:48:18;102197.72;;;14.59;51.06
19096;BME280;9680;52.520;13.332;2023-04-08T12:50:46;102194.69;;;14.15;50.49
19096;BME280;9680;52.520;13.332;2023-04-08T12:53:13;102193.38;;;14.00;51.83
19096;BME280;9680;52.520;13.332;2023-04-08T12:55:40;102192.25;;;14.08;52.26
19096;BME280;9680;52.520;13.332;2023-04-08T12:58:12;102192.25;;;14.65;51.44
19096;BME280;9680;52.520;13.332;2023-04-08T13:00:38;102191.84;;;15.06;49.38
19096;BME280;9680;52.520;13.332;2023-04-08T13:03:10;102189.16;;;15.33;48.11
19096;BME280;9680;52.520;13.332;2023-04-08T13:05:42;102187.44;;;15.57;47.44